sensor_id;sensor_type;location;lat;lon;timestamp;noise_LAeq;noise_LA_min;noise_LA_max;noise_LA01;noise_LA95
74260;Laerm;62630;55.874;37.516;2023-06-04T00:01:11;57.90;50.32;70.13;;
74260;Laerm;62630;55.874;37.516;2023-06-04T00:03:36;55.60;50.09;66.17;;
74260;Laerm;62630;55.874;37.516;2023-06-04T00:06:02;53.91;50.10;60.43;;
74260;Laerm;62630;55.874;37.516;2023-06-04T00:08:28;53.66;49.94;58.09;;
74260;Laerm;62630;55.874;37.516;2023-06-04T00:10:53;58.31;50.18;69.70;;
74260;Laerm;62630;55.874;37.516;2023-06-04T00:13:19;58.29;50.65;69.09;;
74260;Laerm;62630;55.874;37.516;2023-06-04T00:15:45;55.85;50.77;66.98;;
74260;Laerm;62630;55.874;37.516;2023-06-04T00:18:10;58.97;50.76;70.56;;
74260;Laerm;62630;55.874;37.516;2023-06-04T00:20:38;55.17;51.01;64.44;;
74260;Laerm;62630;55.874;37.516;2023-06-04T00:23:04;56.04;50.55;67.74;;
74260;Laerm;62630;55.874;37.516;2023-06-04T00:25:29;57.94;50.29;71.38;;
74260;Laerm;62630;55.874;37.516;2023-06-04T00:27:55;53.76;49.91;57.53;;
74260;Laerm;62630;55.874;37.516;2023-06-04T00:30:20;54.05;49.13;60.02;;
74260;Laerm;62630;55.874;37.516;2023-06-04T00:32:46;55.05;50.29;64.78;;
74260;Laerm;62630;55.874;37.516;2023-06-04T00:35:12;55.02;50.07;63.98;;
74260;Laerm;62630;55.874;37.516;2023-06-04T00:37:38;59.36;50.54;70.89;;
74260;Laerm;62630;55.874;37.516;2023-06-04T00:40:04;55.51;50.64;64.31;;
74260;Laerm;62630;55.874;37.516;2023-06-04T00:42:31;55.68;50.27;64.45;;
74260;Laerm;62630;55.874;37.516;2023-06-04T00:44:57;53.91;49.67;62.38;;
74260;Laerm;62630;55.874;37.516;2023-06-04T00:47:22;58.52;51.41;71.87;;
74260;Laerm;62630;55.874;37.516;2023-06-04T00:49:48;58.37;51.61;72.53;;
74260;Laerm;62630;55.874;37.516;2023-06-04T00:52:15;54.72;49.78;62.38;;
74260;Laerm;62630;55.874;37.516;2023-06-04T00:54:41;55.74;49.43;68.18;;
74260;Laerm;62630;55.874;37.516;2023-06-04T00:57:07;57.17;49.72;74.33;;
74260;Laerm;62630;55.874;37.516;2023-06-04T00:59:35;55.27;49.94;63.61;;
74260;Laerm;62630;55.874;37.516;2023-06-04T01:02:11;54.61;49.93;61.73;;
74260;Laerm;62630;55.874;37.516;2023-06-04T01:07:15;55.82;50.37;66.90;;
74260;Laerm;62630;55.874;37.516;2023-06-04T01:09:43;55.89;51.31;64.03;;
74260;Laerm;62630;55.874;37.516;2023-06-04T01:12:10;59.20;51.40;70.03;;
74260;Laerm;62630;55.874;37.516;2023-06-04T01:14:36;58.50;51.46;70.02;;
74260;Laerm;62630;55.874;37.516;2023-06-04T01:17:13;57.04;51.22;66.21;;
74260;Laerm;62630;55.874;37.516;2023-06-04T01:27:54;59.59;50.29;72.54;;
74260;Laerm;62630;55.874;37.516;2023-06-04T01:30:26;58.55;49.83;74.63;;
74260;Laerm;62630;55.874;37.516;2023-06-04T01:32:55;60.08;51.09;76.44;;
74260;Laerm;62630;55.874;37.516;2023-06-04T01:35:22;58.07;50.63;68.13;;
74260;Laerm;62630;55.874;37.516;2023-06-04T01:37:48;57.21;50.75;68.74;;
74260;Laerm;62630;55.874;37.516;2023-06-04T01:40:14;56.97;50.79;69.48;;
74260;Laerm;62630;55.874;37.516;2023-06-04T01:42:41;63.89;51.25;77.04;;
74260;Laerm;62630;55.874;37.516;2023-06-04T01:45:07;62.90;51.14;88.29;;
74260;Laerm;62630;55.874;37.516;2023-06-04T01:47:33;59.12;51.20;70.49;;
74260;Laerm;62630;55.874;37.516;2023-06-04T01:49:59;56.29;51.12;67.85;;
74260;Laerm;62630;55.874;37.516;2023-06-04T01:52:25;55.99;49.99;67.02;;
74260;Laerm;62630;55.874;37.516;2023-06-04T01:54:50;56.61;49.66;69.72;;
74260;Laerm;62630;55.874;37.516;2023-06-04T01:57:21;56.39;50.09;67.60;;
74260;Laerm;62630;55.874;37.516;2023-06-04T01:59:47;60.06;50.76;73.22;;
74260;Laerm;62630;55.874;37.516;2023-06-04T02:02:13;59.35;51.14;69.06;;
74260;Laerm;62630;55.874;37.516;2023-06-04T02:04:39;58.74;50.96;73.05;;
74260;Laerm;62630;55.874;37.516;2023-06-04T02:07:08;59.93;52.68;76.72;;
74260;Laerm;62630;55.874;37.516;2023-06-04T02:09:34;59.53;51.19;71.08;;
74260;Laerm;62630;55.874;37.516;2023-06-04T02:12:00;57.14;51.08;72.11;;
74260;Laerm;62630;55.874;37.516;2023-06-04T02:14:27;56.37;50.21;66.52;;
74260;Laerm;62630;55.874;37.516;2023-06-04T02:16:52;58.75;51.73;68.75;;
74260;Laerm;62630;55.874;37.516;2023-06-04T02:19:24;57.89;51.97;71.39;;
74260;Laerm;62630;55.874;37.516;2023-06-04T02:21:52;59.03;51.86;71.31;;
74260;Laerm;62630;55.874;37.516;2023-06-04T02:24:17;59.72;51.23;69.23;;
74260;Laerm;62630;55.874;37.516;2023-06-04T02:26:43;60.05;51.76;73.02;;
74260;Laerm;62630;55.874;37.516;2023-06-04T02:29:08;59.99;51.22;72.39;;
74260;Laerm;62630;55.874;37.516;2023-06-04T02:31:34;57.37;51.12;70.49;;
74260;Laerm;62630;55.874;37.516;2023-06-04T02:33:59;62.64;53.02;73.40;;
74260;Laerm;62630;55.874;37.516;2023-06-04T02:36:25;60.23;51.40;68.96;;
74260;Laerm;62630;55.874;37.516;2023-06-04T02:38:50;58.35;49.94;68.92;;
74260;Laerm;62630;55.874;37.516;2023-06-04T02:41:16;58.55;50.05;68.52;;
74260;Laerm;62630;55.874;37.516;2023-06-04T02:43:42;59.25;50.54;68.86;;
74260;Laerm;62630;55.874;37.516;2023-06-04T02:46:07;59.09;49.47;70.89;;
74260;Laerm;62630;55.874;37.516;2023-06-04T02:48:33;57.10;49.38;68.85;;
74260;Laerm;62630;55.874;37.516;2023-06-04T02:50:58;55.42;49.17;72.60;;
74260;Laerm;62630;55.874;37.516;2023-06-04T02:53:24;60.60;48.56;81.27;;
74260;Laerm;62630;55.874;37.516;2023-06-04T02:55:49;53.81;49.29;67.72;;
74260;Laerm;62630;55.874;37.516;2023-06-04T02:58:17;56.31;48.41;68.92;;
74260;Laerm;62630;55.874;37.516;2023-06-04T03:00:42;61.22;49.74;69.96;;
74260;Laerm;62630;55.874;37.516;2023-06-04T03:03:11;56.09;48.86;70.14;;
74260;Laerm;62630;55.874;37.516;2023-06-04T03:05:36;57.84;49.53;69.98;;
74260;Laerm;62630;55.874;37.516;2023-06-04T03:08:04;57.17;48.53;66.66;;
74260;Laerm;62630;55.874;37.516;2023-06-04T03:10:30;59.42;49.38;71.62;;
74260;Laerm;62630;55.874;37.516;2023-06-04T03:12:56;60.37;49.42;73.03;;
74260;Laerm;62630;55.874;37.516;2023-06-04T03:15:22;60.26;50.68;70.59;;
74260;Laerm;62630;55.874;37.516;2023-06-04T03:17:47;61.47;49.29;77.86;;
74260;Laerm;62630;55.874;37.516;2023-06-04T03:20:14;59.50;48.23;72.99;;
74260;Laerm;62630;55.874;37.516;2023-06-04T03:22:39;58.12;49.10;69.92;;
74260;Laerm;62630;55.874;37.516;2023-06-04T03:25:05;59.76;48.07;82.75;;
74260;Laerm;62630;55.874;37.516;2023-06-04T03:27:32;57.87;48.99;70.62;;
74260;Laerm;62630;55.874;37.516;2023-06-04T03:29:58;57.71;47.91;68.07;;
74260;Laerm;62630;55.874;37.516;2023-06-04T03:32:24;57.48;48.55;66.05;;
74260;Laerm;62630;55.874;37.516;2023-06-04T03:34:49;63.58;49.59;77.05;;
74260;Laerm;62630;55.874;37.516;2023-06-04T03:37:16;55.61;47.60;67.12;;
74260;Laerm;62630;55.874;37.516;2023-06-04T03:39:42;60.48;48.73;74.12;;
74260;Laerm;62630;55.874;37.516;2023-06-04T03:42:07;57.40;47.44;75.47;;
74260;Laerm;62630;55.874;37.516;2023-06-04T03:44:33;63.30;48.31;89.41;;
74260;Laerm;62630;55.874;37.516;2023-06-04T03:46:59;60.08;47.89;70.13;;
74260;Laerm;62630;55.874;37.516;2023-06-04T03:49:24;61.42;48.17;72.38;;
74260;Laerm;62630;55.874;37.516;2023-06-04T03:51:50;61.50;48.65;72.23;;
74260;Laerm;62630;55.874;37.516;2023-06-04T03:54:16;54.55;47.34;66.28;;
74260;Laerm;62630;55.874;37.516;2023-06-04T03:56:46;61.30;47.30;76.53;;
74260;Laerm;62630;55.874;37.516;2023-06-04T03:59:11;58.56;48.99;68.01;;
74260;Laerm;62630;55.874;37.516;2023-06-04T04:01:37;60.41;49.20;78.42;;
74260;Laerm;62630;55.874;37.516;2023-06-04T04:04:04;58.94;48.61;70.37;;
74260;Laerm;62630;55.874;37.516;2023-06-04T04:06:30;58.12;48.79;71.84;;
74260;Laerm;62630;55.874;37.516;2023-06-04T04:08:56;57.06;48.17;67.40;;
74260;Laerm;62630;55.874;37.516;2023-06-04T04:11:23;59.11;50.57;70.61;;
74260;Laerm;62630;55.874;37.516;2023-06-04T04:13:49;58.98;48.46;72.47;;
74260;Laerm;62630;55.874;37.516;2023-06-04T04:16:14;62.22;48.16;77.55;;
74260;Laerm;62630;55.874;37.516;2023-06-04T04:18:42;59.61;50.32;68.33;;
74260;Laerm;62630;55.874;37.516;2023-06-04T04:21:09;63.58;47.61;77.30;;
74260;Laerm;62630;55.874;37.516;2023-06-04T04:23:38;58.23;47.62;69.48;;
74260;Laerm;62630;55.874;37.516;2023-06-04T04:26:05;59.23;48.83;74.06;;
74260;Laerm;62630;55.874;37.516;2023-06-04T04:28:31;59.33;46.45;74.35;;
74260;Laerm;62630;55.874;37.516;2023-06-04T04:30:57;60.77;49.30;73.24;;
74260;Laerm;62630;55.874;37.516;2023-06-04T04:33:25;60.96;49.09;72.58;;
74260;Laerm;62630;55.874;37.516;2023-06-04T04:35:51;59.90;48.71;75.28;;
74260;Laerm;62630;55.874;37.516;2023-06-04T04:38:19;60.03;48.97;69.53;;
74260;Laerm;62630;55.874;37.516;2023-06-04T04:40:45;55.03;48.23;69.17;;
74260;Laerm;62630;55.874;37.516;2023-06-04T04:43:13;62.22;48.64;76.56;;
74260;Laerm;62630;55.874;37.516;2023-06-04T04:45:38;64.81;49.02;81.92;;
74260;Laerm;62630;55.874;37.516;2023-06-04T04:48:04;59.25;48.40;70.03;;
74260;Laerm;62630;55.874;37.516;2023-06-04T04:50:30;61.63;50.16;75.49;;
74260;Laerm;62630;55.874;37.516;2023-06-04T04:52:58;60.92;47.98;72.46;;
74260;Laerm;62630;55.874;37.516;2023-06-04T04:55:23;60.69;48.84;75.53;;
74260;Laerm;62630;55.874;37.516;2023-06-04T04:57:49;57.29;47.06;66.80;;
74260;Laerm;62630;55.874;37.516;2023-06-04T05:00:15;59.85;48.01;69.93;;
74260;Laerm;62630;55.874;37.516;2023-06-04T05:02:41;60.26;46.93;72.41;;
74260;Laerm;62630;55.874;37.516;2023-06-04T05:05:06;61.87;50.11;72.37;;
74260;Laerm;62630;55.874;37.516;2023-06-04T05:07:32;59.41;49.32;69.88;;
74260;Laerm;62630;55.874;37.516;2023-06-04T05:09:57;58.66;46.73;69.00;;
74260;Laerm;62630;55.874;37.516;2023-06-04T05:12:30;60.69;48.85;72.61;;
74260;Laerm;62630;55.874;37.516;2023-06-04T05:14:57;57.45;48.77;65.55;;
74260;Laerm;62630;55.874;37.516;2023-06-04T05:17:22;58.13;48.33;68.72;;
74260;Laerm;62630;55.874;37.516;2023-06-04T05:19:58;59.01;48.39;75.29;;
74260;Laerm;62630;55.874;37.516;2023-06-04T05:22:29;60.12;48.69;76.53;;
74260;Laerm;62630;55.874;37.516;2023-06-04T05:24:57;61.52;50.04;75.29;;
74260;Laerm;62630;55.874;37.516;2023-06-04T05:27:25;61.20;48.39;70.34;;
74260;Laerm;62630;55.874;37.516;2023-06-04T05:29:51;62.02;48.29;70.24;;
74260;Laerm;62630;55.874;37.516;2023-06-04T05:32:16;59.89;49.76;74.91;;
74260;Laerm;62630;55.874;37.516;2023-06-04T05:34:43;62.85;49.85;74.92;;
74260;Laerm;62630;55.874;37.516;2023-06-04T05:37:09;64.80;54.62;73.53;;
74260;Laerm;62630;55.874;37.516;2023-06-04T05:39:34;64.66;52.12;79.09;;
74260;Laerm;62630;55.874;37.516;2023-06-04T05:42:01;63.53;52.16;76.44;;
74260;Laerm;62630;55.874;37.516;2023-06-04T05:44:27;61.54;52.54;79.69;;
74260;Laerm;62630;55.874;37.516;2023-06-04T05:46:52;61.25;53.18;81.18;;
74260;Laerm;62630;55.874;37.516;2023-06-04T05:49:18;61.24;51.29;69.22;;
74260;Laerm;62630;55.874;37.516;2023-06-04T05:51:45;60.93;51.69;70.82;;
74260;Laerm;62630;55.874;37.516;2023-06-04T05:54:10;61.26;48.97;75.29;;
74260;Laerm;62630;55.874;37.516;2023-06-04T05:56:36;61.63;50.84;74.81;;
74260;Laerm;62630;55.874;37.516;2023-06-04T05:59:01;58.39;49.21;68.10;;
74260;Laerm;62630;55.874;37.516;2023-06-04T06:01:27;58.74;47.69;82.57;;
74260;Laerm;62630;55.874;37.516;2023-06-04T06:03:54;61.46;52.87;69.27;;
74260;Laerm;62630;55.874;37.516;2023-06-04T06:06:20;62.27;52.70;72.40;;
74260;Laerm;62630;55.874;37.516;2023-06-04T06:08:46;59.56;51.37;73.59;;
74260;Laerm;62630;55.874;37.516;2023-06-04T06:11:12;60.21;50.65;69.98;;
74260;Laerm;62630;55.874;37.516;2023-06-04T06:13:37;67.65;48.91;80.26;;
74260;Laerm;62630;55.874;37.516;2023-06-04T06:16:03;62.01;52.88;74.02;;
74260;Laerm;62630;55.874;37.516;2023-06-04T06:18:29;64.91;53.43;77.65;;
74260;Laerm;62630;55.874;37.516;2023-06-04T06:20:55;60.55;51.99;68.22;;
74260;Laerm;62630;55.874;37.516;2023-06-04T06:23:21;60.60;53.06;71.67;;
74260;Laerm;62630;55.874;37.516;2023-06-04T06:25:48;65.49;54.68;77.06;;
74260;Laerm;62630;55.874;37.516;2023-06-04T06:28:17;59.48;50.18;68.54;;
74260;Laerm;62630;55.874;37.516;2023-06-04T06:30:43;59.84;48.88;73.06;;
74260;Laerm;62630;55.874;37.516;2023-06-04T06:33:09;60.85;51.63;70.98;;
74260;Laerm;62630;55.874;37.516;2023-06-04T06:35:35;69.14;55.92;82.83;;
74260;Laerm;62630;55.874;37.516;2023-06-04T06:38:01;63.78;51.68;78.02;;
74260;Laerm;62630;55.874;37.516;2023-06-04T06:40:26;61.40;50.85;71.52;;
74260;Laerm;62630;55.874;37.516;2023-06-04T06:42:52;63.22;49.77;83.76;;
74260;Laerm;62630;55.874;37.516;2023-06-04T06:45:18;67.39;50.17;83.74;;
74260;Laerm;62630;55.874;37.516;2023-06-04T06:47:44;62.26;52.24;72.57;;
74260;Laerm;62630;55.874;37.516;2023-06-04T06:50:10;61.39;51.20;75.20;;
74260;Laerm;62630;55.874;37.516;2023-06-04T06:52:36;62.22;52.31;72.20;;
74260;Laerm;62630;55.874;37.516;2023-06-04T06:55:05;63.70;50.74;73.75;;
74260;Laerm;62630;55.874;37.516;2023-06-04T06:57:32;61.91;50.47;73.33;;
74260;Laerm;62630;55.874;37.516;2023-06-04T06:59:58;62.71;54.56;77.27;;
74260;Laerm;62630;55.874;37.516;2023-06-04T07:02:24;61.28;52.02;70.48;;
74260;Laerm;62630;55.874;37.516;2023-06-04T07:04:50;65.21;53.76;74.45;;
74260;Laerm;62630;55.874;37.516;2023-06-04T07:07:16;64.89;53.58;76.13;;
74260;Laerm;62630;55.874;37.516;2023-06-04T07:09:42;65.20;54.12;82.33;;
74260;Laerm;62630;55.874;37.516;2023-06-04T07:12:08;63.74;55.73;76.31;;
74260;Laerm;62630;55.874;37.516;2023-06-04T07:14:34;65.09;52.98;74.64;;
74260;Laerm;62630;55.874;37.516;2023-06-04T07:17:00;62.37;53.21;77.47;;
74260;Laerm;62630;55.874;37.516;2023-06-04T07:19:25;62.07;52.99;72.51;;
74260;Laerm;62630;55.874;37.516;2023-06-04T07:21:54;66.75;51.14;82.78;;
74260;Laerm;62630;55.874;37.516;2023-06-04T07:24:19;63.62;57.02;70.39;;
74260;Laerm;62630;55.874;37.516;2023-06-04T07:26:47;65.72;60.95;73.29;;
74260;Laerm;62630;55.874;37.516;2023-06-04T07:29:13;65.16;60.77;76.89;;
74260;Laerm;62630;55.874;37.516;2023-06-04T07:31:38;67.29;60.71;82.86;;
74260;Laerm;62630;55.874;37.516;2023-06-04T07:34:05;66.45;59.96;72.73;;
74260;Laerm;62630;55.874;37.516;2023-06-04T07:36:31;64.25;56.49;74.65;;
74260;Laerm;62630;55.874;37.516;2023-06-04T07:38:58;64.03;56.53;85.74;;
74260;Laerm;62630;55.874;37.516;2023-06-04T07:41:23;64.70;57.47;75.64;;
74260;Laerm;62630;55.874;37.516;2023-06-04T07:43:50;64.30;57.46;78.09;;
74260;Laerm;62630;55.874;37.516;2023-06-04T07:46:16;68.43;56.39;82.58;;
74260;Laerm;62630;55.874;37.516;2023-06-04T07:48:44;62.91;55.40;73.49;;
74260;Laerm;62630;55.874;37.516;2023-06-04T07:51:10;62.12;49.04;87.17;;
74260;Laerm;62630;55.874;37.516;2023-06-04T07:53:37;68.16;52.54;90.17;;
74260;Laerm;62630;55.874;37.516;2023-06-04T07:56:03;68.10;52.18;93.26;;
74260;Laerm;62630;55.874;37.516;2023-06-04T07:58:29;61.91;53.26;72.45;;
74260;Laerm;62630;55.874;37.516;2023-06-04T08:00:55;63.71;53.85;82.04;;
74260;Laerm;62630;55.874;37.516;2023-06-04T08:03:21;62.59;53.03;68.51;;
74260;Laerm;62630;55.874;37.516;2023-06-04T08:05:47;62.94;53.57;72.79;;
74260;Laerm;62630;55.874;37.516;2023-06-04T08:08:12;65.82;51.68;79.34;;
74260;Laerm;62630;55.874;37.516;2023-06-04T08:10:41;70.23;52.06;89.85;;
74260;Laerm;62630;55.874;37.516;2023-06-04T08:13:06;69.66;51.35;85.14;;
74260;Laerm;62630;55.874;37.516;2023-06-04T08:15:33;62.07;52.06;72.13;;
74260;Laerm;62630;55.874;37.516;2023-06-04T08:17:59;64.69;52.79;86.53;;
74260;Laerm;62630;55.874;37.516;2023-06-04T08:20:24;61.91;52.02;71.97;;
74260;Laerm;62630;55.874;37.516;2023-06-04T08:22:51;62.69;51.91;74.58;;
74260;Laerm;62630;55.874;37.516;2023-06-04T08:25:16;67.93;53.11;82.28;;
74260;Laerm;62630;55.874;37.516;2023-06-04T08:27:42;63.16;54.04;79.39;;
74260;Laerm;62630;55.874;37.516;2023-06-04T08:30:08;61.82;52.59;72.43;;
74260;Laerm;62630;55.874;37.516;2023-06-04T08:32:34;62.08;52.33;70.38;;
74260;Laerm;62630;55.874;37.516;2023-06-04T08:35:00;63.48;53.72;72.22;;
74260;Laerm;62630;55.874;37.516;2023-06-04T08:37:25;64.97;52.72;74.03;;
74260;Laerm;62630;55.874;37.516;2023-06-04T08:39:51;65.53;55.11;74.61;;
74260;Laerm;62630;55.874;37.516;2023-06-04T08:42:31;64.92;54.61;78.02;;
74260;Laerm;62630;55.874;37.516;2023-06-04T08:44:57;63.32;53.60;76.76;;
74260;Laerm;62630;55.874;37.516;2023-06-04T08:47:29;64.95;55.78;82.64;;
74260;Laerm;62630;55.874;37.516;2023-06-04T08:49:59;63.06;54.40;73.86;;
74260;Laerm;62630;55.874;37.516;2023-06-04T08:52:25;62.75;54.76;70.75;;
74260;Laerm;62630;55.874;37.516;2023-06-04T08:54:53;61.90;50.92;70.26;;
74260;Laerm;62630;55.874;37.516;2023-06-04T08:57:20;61.40;51.80;72.86;;
74260;Laerm;62630;55.874;37.516;2023-06-04T08:59:47;59.99;49.69;70.40;;
74260;Laerm;62630;55.874;37.516;2023-06-04T09:02:14;60.29;49.69;69.83;;
74260;Laerm;62630;55.874;37.516;2023-06-04T09:04:40;62.22;53.72;70.53;;
74260;Laerm;62630;55.874;37.516;2023-06-04T09:07:06;63.32;52.84;82.64;;
74260;Laerm;62630;55.874;37.516;2023-06-04T09:09:37;62.76;51.75;71.82;;
74260;Laerm;62630;55.874;37.516;2023-06-04T09:12:06;65.01;53.57;92.12;;
74260;Laerm;62630;55.874;37.516;2023-06-04T09:14:33;63.01;51.79;86.83;;
74260;Laerm;62630;55.874;37.516;2023-06-04T09:16:59;64.11;52.81;73.04;;
74260;Laerm;62630;55.874;37.516;2023-06-04T09:19:24;62.97;52.97;72.80;;
74260;Laerm;62630;55.874;37.516;2023-06-04T09:21:52;61.26;50.97;71.04;;
74260;Laerm;62630;55.874;37.516;2023-06-04T09:24:19;62.29;51.17;81.15;;
74260;Laerm;62630;55.874;37.516;2023-06-04T09:26:45;65.76;52.06;89.54;;
74260;Laerm;62630;55.874;37.516;2023-06-04T09:29:11;64.07;50.01;74.34;;
74260;Laerm;62630;55.874;37.516;2023-06-04T09:31:37;61.99;53.34;71.78;;
74260;Laerm;62630;55.874;37.516;2023-06-04T09:34:05;65.83;53.43;85.22;;
74260;Laerm;62630;55.874;37.516;2023-06-04T09:36:32;61.31;52.53;71.41;;
74260;Laerm;62630;55.874;37.516;2023-06-04T09:38:58;64.05;53.46;75.92;;
74260;Laerm;62630;55.874;37.516;2023-06-04T09:41:25;63.58;52.73;73.18;;
74260;Laerm;62630;55.874;37.516;2023-06-04T09:43:51;65.59;53.53;79.18;;
74260;Laerm;62630;55.874;37.516;2023-06-04T09:46:24;63.60;53.47;75.38;;
74260;Laerm;62630;55.874;37.516;2023-06-04T09:48:59;64.61;53.96;76.70;;
74260;Laerm;62630;55.874;37.516;2023-06-04T09:51:25;63.48;54.72;74.20;;
74260;Laerm;62630;55.874;37.516;2023-06-04T09:53:55;61.31;51.71;71.74;;
74260;Laerm;62630;55.874;37.516;2023-06-04T09:56:22;62.20;52.62;73.67;;
74260;Laerm;62630;55.874;37.516;2023-06-04T09:58:54;62.88;54.60;70.38;;
74260;Laerm;62630;55.874;37.516;2023-06-04T10:01:22;63.77;55.47;75.39;;
74260;Laerm;62630;55.874;37.516;2023-06-04T10:03:50;64.31;56.22;77.56;;
74260;Laerm;62630;55.874;37.516;2023-06-04T10:06:17;62.99;52.59;71.58;;
74260;Laerm;62630;55.874;37.516;2023-06-04T10:08:45;61.71;51.96;70.76;;
74260;Laerm;62630;55.874;37.516;2023-06-04T10:11:11;60.71;50.00;71.33;;
74260;Laerm;62630;55.874;37.516;2023-06-04T10:13:53;64.08;57.50;73.21;;
74260;Laerm;62630;55.874;37.516;2023-06-04T10:16:23;62.88;53.61;72.62;;
74260;Laerm;62630;55.874;37.516;2023-06-04T10:18:52;63.99;53.04;75.61;;
74260;Laerm;62630;55.874;37.516;2023-06-04T10:21:21;62.88;53.71;70.22;;
74260;Laerm;62630;55.874;37.516;2023-06-04T10:23:50;66.53;60.74;80.23;;
74260;Laerm;62630;55.874;37.516;2023-06-04T10:26:16;64.38;58.75;72.01;;
74260;Laerm;62630;55.874;37.516;2023-06-04T10:28:42;65.31;56.28;77.19;;
74260;Laerm;62630;55.874;37.516;2023-06-04T10:31:11;62.76;52.25;73.63;;
74260;Laerm;62630;55.874;37.516;2023-06-04T10:33:37;64.98;56.08;76.62;;
74260;Laerm;62630;55.874;37.516;2023-06-04T10:36:17;62.64;54.48;71.80;;
74260;Laerm;62630;55.874;37.516;2023-06-04T10:38:52;67.88;51.60;87.69;;
74260;Laerm;62630;55.874;37.516;2023-06-04T10:41:19;62.49;54.13;71.39;;
74260;Laerm;62630;55.874;37.516;2023-06-04T10:43:51;73.91;53.68;93.60;;
74260;Laerm;62630;55.874;37.516;2023-06-04T10:46:18;68.83;52.72;79.13;;
74260;Laerm;62630;55.874;37.516;2023-06-04T10:48:48;64.47;54.64;73.69;;
74260;Laerm;62630;55.874;37.516;2023-06-04T10:51:31;64.13;54.21;77.21;;
74260;Laerm;62630;55.874;37.516;2023-06-04T10:53:58;61.29;51.95;78.43;;
74260;Laerm;62630;55.874;37.516;2023-06-04T10:56:28;63.70;54.50;72.10;;
74260;Laerm;62630;55.874;37.516;2023-06-04T10:58:54;63.46;52.74;77.01;;
74260;Laerm;62630;55.874;37.516;2023-06-04T11:01:27;63.59;52.14;73.55;;
74260;Laerm;62630;55.874;37.516;2023-06-04T11:03:56;67.89;53.24;79.87;;
74260;Laerm;62630;55.874;37.516;2023-06-04T11:06:23;67.46;53.77;77.87;;
74260;Laerm;62630;55.874;37.516;2023-06-04T11:09:03;64.39;53.11;79.75;;
74260;Laerm;62630;55.874;37.516;2023-06-04T11:11:29;64.31;53.06;76.29;;
74260;Laerm;62630;55.874;37.516;2023-06-04T11:13:55;63.46;52.25;74.91;;
74260;Laerm;62630;55.874;37.516;2023-06-04T11:16:21;63.59;55.96;72.45;;
74260;Laerm;62630;55.874;37.516;2023-06-04T11:18:57;64.18;51.81;92.38;;
74260;Laerm;62630;55.874;37.516;2023-06-04T11:21:24;63.10;53.09;79.03;;
74260;Laerm;62630;55.874;37.516;2023-06-04T11:23:57;62.61;52.37;70.51;;
74260;Laerm;62630;55.874;37.516;2023-06-04T11:26:32;62.89;51.71;75.19;;
74260;Laerm;62630;55.874;37.516;2023-06-04T11:28:59;60.87;52.23;68.97;;
74260;Laerm;62630;55.874;37.516;2023-06-04T11:31:25;64.29;52.83;77.34;;
74260;Laerm;62630;55.874;37.516;2023-06-04T11:33:50;61.36;52.77;72.95;;
74260;Laerm;62630;55.874;37.516;2023-06-04T11:36:45;61.59;53.46;74.79;;
74260;Laerm;62630;55.874;37.516;2023-06-04T11:39:11;62.69;52.34;74.82;;
74260;Laerm;62630;55.874;37.516;2023-06-04T11:41:38;62.67;53.60;75.31;;
74260;Laerm;62630;55.874;37.516;2023-06-04T11:44:05;62.47;53.08;83.64;;
74260;Laerm;62630;55.874;37.516;2023-06-04T11:46:35;65.35;51.61;79.85;;
74260;Laerm;62630;55.874;37.516;2023-06-04T11:49:02;62.51;55.77;74.21;;
74260;Laerm;62630;55.874;37.516;2023-06-04T11:51:27;64.72;53.68;79.02;;
74260;Laerm;62630;55.874;37.516;2023-06-04T11:53:56;64.13;52.50;72.92;;
74260;Laerm;62630;55.874;37.516;2023-06-04T11:56:24;62.36;52.01;70.64;;
74260;Laerm;62630;55.874;37.516;2023-06-04T11:58:53;64.56;53.36;71.95;;
74260;Laerm;62630;55.874;37.516;2023-06-04T12:01:19;64.43;50.69;89.23;;
74260;Laerm;62630;55.874;37.516;2023-06-04T12:03:45;62.32;52.47;70.27;;
74260;Laerm;62630;55.874;37.516;2023-06-04T12:06:17;61.97;52.07;71.06;;
74260;Laerm;62630;55.874;37.516;2023-06-04T12:08:52;63.37;55.24;76.94;;
74260;Laerm;62630;55.874;37.516;2023-06-04T12:13:53;63.45;53.50;77.60;;
74260;Laerm;62630;55.874;37.516;2023-06-04T12:16:18;63.52;53.57;70.86;;
74260;Laerm;62630;55.874;37.516;2023-06-04T12:18:44;64.82;53.61;76.86;;
74260;Laerm;62630;55.874;37.516;2023-06-04T12:21:36;63.79;53.27;78.81;;
74260;Laerm;62630;55.874;37.516;2023-06-04T12:24:06;62.85;54.73;70.71;;
74260;Laerm;62630;55.874;37.516;2023-06-04T12:26:33;63.33;54.12;72.09;;
74260;Laerm;62630;55.874;37.516;2023-06-04T12:31:42;63.19;52.70;72.13;;
74260;Laerm;62630;55.874;37.516;2023-06-04T12:34:11;62.83;55.13;74.80;;
74260;Laerm;62630;55.874;37.516;2023-06-04T12:36:37;66.39;54.39;78.74;;
74260;Laerm;62630;55.874;37.516;2023-06-04T12:39:04;62.31;53.04;72.20;;
74260;Laerm;62630;55.874;37.516;2023-06-04T12:41:31;64.10;53.44;71.31;;
74260;Laerm;62630;55.874;37.516;2023-06-04T12:43:57;62.17;53.84;70.37;;
74260;Laerm;62630;55.874;37.516;2023-06-04T12:46:23;62.78;54.82;70.44;;
74260;Laerm;62630;55.874;37.516;2023-06-04T12:48:53;62.80;53.98;71.93;;
74260;Laerm;62630;55.874;37.516;2023-06-04T12:51:21;63.80;50.84;72.91;;
74260;Laerm;62630;55.874;37.516;2023-06-04T12:53:47;63.54;52.29;74.88;;
74260;Laerm;62630;55.874;37.516;2023-06-04T12:56:13;62.76;53.98;78.32;;
74260;Laerm;62630;55.874;37.516;2023-06-04T12:58:39;61.57;51.85;69.93;;
74260;Laerm;62630;55.874;37.516;2023-06-04T13:01:04;63.16;54.49;76.83;;
74260;Laerm;62630;55.874;37.516;2023-06-04T13:03:31;61.73;53.61;76.07;;
74260;Laerm;62630;55.874;37.516;2023-06-04T13:05:57;62.03;52.27;75.47;;
74260;Laerm;62630;55.874;37.516;2023-06-04T13:08:23;64.50;53.79;74.81;;
74260;Laerm;62630;55.874;37.516;2023-06-04T13:10:52;62.07;53.56;71.08;;
74260;Laerm;62630;55.874;37.516;2023-06-04T13:13:18;63.54;52.86;73.69;;
74260;Laerm;62630;55.874;37.516;2023-06-04T13:15:44;64.76;52.60;81.06;;
74260;Laerm;62630;55.874;37.516;2023-06-04T13:18:10;61.81;52.00;71.07;;
74260;Laerm;62630;55.874;37.516;2023-06-04T13:20:36;63.35;51.44;72.80;;
74260;Laerm;62630;55.874;37.516;2023-06-04T13:23:02;63.54;55.62;80.56;;
74260;Laerm;62630;55.874;37.516;2023-06-04T13:25:29;64.34;54.86;75.98;;
74260;Laerm;62630;55.874;37.516;2023-06-04T13:27:55;62.70;54.24;74.53;;
74260;Laerm;62630;55.874;37.516;2023-06-04T13:30:21;62.10;52.36;73.04;;
74260;Laerm;62630;55.874;37.516;2023-06-04T13:32:48;60.90;52.10;71.65;;
74260;Laerm;62630;55.874;37.516;2023-06-04T13:35:14;61.40;52.11;69.48;;
74260;Laerm;62630;55.874;37.516;2023-06-04T13:37:39;63.38;52.40;70.42;;
74260;Laerm;62630;55.874;37.516;2023-06-04T13:40:06;61.56;52.22;71.01;;
74260;Laerm;62630;55.874;37.516;2023-06-04T13:42:32;65.36;54.22;78.45;;
74260;Laerm;62630;55.874;37.516;2023-06-04T13:44:57;61.28;51.04;70.22;;
74260;Laerm;62630;55.874;37.516;2023-06-04T13:47:24;63.75;53.94;72.45;;